Thunder Bay Airport
CYQT : now visible

Airfield :











YOU CAN JOIN US ON...

 
LOGIN :

Register | Disclaimer

   EN    FR    IT 

 









Legend :    VFR   Marginal VFR   IFR   Intensive IFR   Very Intensive IFR
Visi :
Ceiling :
>= 8 km
>= 3000ft
5 to 8 km
1000 to 3000 ft
1500m to 5 km
500 to 1000 ft
800 to 1500m
200 to 500 ft
< 800m
< 200 ft
Symbols :   Thunderstorms  Fog  Heavy snow  Heavy precipitations  Wind > 20 kt






- Airport Elevation : 653 ft
- IATA code : YQT


CYQT - Thunder Bay

CURRENT METAR :
  • 100600Z 34007KT 310V030 15SM OVC040 M00/M08 A2991 RMK SC8 SLP140

EXPIRED METARs :
  • 100500Z 35009G21KT 320V030 15SM OVC040 00/M08 A2990 RMK SC8 SLP136
  • 100400Z 33008KT 15SM OVC044 01/M08 A2989 RMK SC8 SLP134

TAF TAF CYQT
Valid from the 10 at 02:00 until the 10 at 14:00 UTC


100138Z 1002/1014 36010KT P6SM BKN050
TEMPO 1002/1006 BKN020
FM100600 32008KT P6SM SCT030
TEMPO 1006/1014 BKN030 RMK NXT FCST BY 100800Z



MET'MAP, your aeronautical weather chart ! - Copyright ORBIFLY December 2007 - Disclaimer

ORBIFLY MET'MAP TEAM :

Programming & Development : Alexandra Zaïnal
Concept & original design : Baudouin d'Aumeries
Assistance for programming : Marc-Olivier Méhu
Technical & hardware support : Manuel Goepfert

Contact : metmap@orbifly.com




SOURCES & CREDITS :

   NOAA       Earth
Advisory